Hauptseite
METAR-TAF:

METAR-TAF

Flughäfen :

Flughafen Treviso

Treviso, Italien

Breite: 45-39N, Länge: 012-11E, Höhe: 18 m

Beobachtung

Neuester Wetterbericht von vor 30 Minuten, um 02:50 UTC
Wind 2 kt aus Nord/Nordwest
Temperatur 12°C
Luftfeuchtigkeit 94%
Luftdruck 1019 hPa
Sichtweite 10 km oder mehr

METAR: LIPH 160250Z AUTO 34002KT 9999 SCT200/// 12/11 Q1019

Zeit: 05:20 (03:20 UTC)

Prognose

Neuester Wetterbericht von vor 4 Stunden und 20 Minuten, um 23:00 UTC
Gültige Prognose vom 16 um 00 UTC bis 16 um 24 UTC
Wind 5 kt aus unterschiedlichen Richtungen
Sichtweite: 8000 m
Leicht bewölkt in der Höhe von 3000 ft

TAF: LIPH 152300Z 1600/1624 VRB05KT 8000 FEW030

Wetterbeobachtungen und Prognosen von mehr als 4000 Flughäfen (METAR und TAF Bericht).

Die verfügbaren Stationen werden durch gelbe und rote Markierungen auf der Karte dargestellt.

Führen Sie die Maus auf sie, um den Namen der Station zu sehen.

Darauf klicken, um die Beobachtung von Wetterbeobachtungen und Prognosen zu sehen.

Um die Karte zu ändern : klicken Sie auf den grünen Tasten mit einem schwarzen Kreuz Zum Vergrößern, auf den grünen Button mit einem Gedankenstrich zu verkleinern, oder auf die grünen Pfeile für benachbarte Karten.


METAR-TAF: